sensor_id;sensor_type;location;lat;lon;timestamp;P1;durP1;ratioP1;P2;durP2;ratioP2
17449;SDS011;8842;51.244;7.102;2024-02-23T00:04:44;5.60;;;5.40;;
17449;SDS011;8842;51.244;7.102;2024-02-23T00:10:05;5.60;;;5.40;;
17449;SDS011;8842;51.244;7.102;2024-02-23T00:15:27;5.53;;;5.33;;
17449;SDS011;8842;51.244;7.102;2024-02-23T00:20:47;5.60;;;5.40;;
17449;SDS011;8842;51.244;7.102;2024-02-23T00:31:19;5.90;;;5.60;;
17449;SDS011;8842;51.244;7.102;2024-02-23T00:36:40;6.17;;;5.87;;
17449;SDS011;8842;51.244;7.102;2024-02-23T00:47:15;6.43;;;6.13;;
17449;SDS011;8842;51.244;7.102;2024-02-23T00:52:35;6.10;;;5.80;;
17449;SDS011;8842;51.244;7.102;2024-02-23T00:57:50;6.10;;;5.80;;
17449;SDS011;8842;51.244;7.102;2024-02-23T01:03:11;6.10;;;5.80;;
17449;SDS011;8842;51.244;7.102;2024-02-23T01:08:32;6.20;;;5.90;;
17449;SDS011;8842;51.244;7.102;2024-02-23T01:13:43;6.20;;;5.90;;
17449;SDS011;8842;51.244;7.102;2024-02-23T01:19:04;6.30;;;6.00;;
17449;SDS011;8842;51.244;7.102;2024-02-23T01:24:18;6.20;;;5.90;;
17449;SDS011;8842;51.244;7.102;2024-02-23T01:29:38;6.10;;;5.80;;
17449;SDS011;8842;51.244;7.102;2024-02-23T01:34:59;6.30;;;6.00;;
17449;SDS011;8842;51.244;7.102;2024-02-23T01:40:20;6.30;;;6.00;;
17449;SDS011;8842;51.244;7.102;2024-02-23T01:45:40;6.40;;;6.10;;
17449;SDS011;8842;51.244;7.102;2024-02-23T01:51:01;6.20;;;5.90;;
17449;SDS011;8842;51.244;7.102;2024-02-23T01:56:23;6.00;;;5.70;;
17449;SDS011;8842;51.244;7.102;2024-02-23T02:01:43;6.10;;;5.80;;
17449;SDS011;8842;51.244;7.102;2024-02-23T02:07:05;6.03;;;5.73;;
17449;SDS011;8842;51.244;7.102;2024-02-23T02:12:26;7.13;;;6.73;;
17449;SDS011;8842;51.244;7.102;2024-02-23T02:17:47;6.40;;;6.10;;
17449;SDS011;8842;51.244;7.102;2024-02-23T02:23:08;6.40;;;6.10;;
17449;SDS011;8842;51.244;7.102;2024-02-23T02:33:41;6.30;;;6.00;;
17449;SDS011;8842;51.244;7.102;2024-02-23T02:39:02;6.30;;;6.00;;
17449;SDS011;8842;51.244;7.102;2024-02-23T02:44:14;6.40;;;6.10;;
17449;SDS011;8842;51.244;7.102;2024-02-23T02:49:34;6.10;;;5.80;;
17449;SDS011;8842;51.244;7.102;2024-02-23T02:54:55;6.20;;;5.90;;
17449;SDS011;8842;51.244;7.102;2024-02-23T03:00:09;6.10;;;5.80;;
17449;SDS011;8842;51.244;7.102;2024-02-23T03:05:30;6.10;;;5.80;;
17449;SDS011;8842;51.244;7.102;2024-02-23T03:10:44;6.30;;;6.00;;
17449;SDS011;8842;51.244;7.102;2024-02-23T03:21:16;6.10;;;5.80;;
17449;SDS011;8842;51.244;7.102;2024-02-23T03:26:36;6.33;;;6.03;;
17449;SDS011;8842;51.244;7.102;2024-02-23T03:31:57;6.30;;;6.00;;
17449;SDS011;8842;51.244;7.102;2024-02-23T03:37:18;6.37;;;6.07;;
17449;SDS011;8842;51.244;7.102;2024-02-23T03:42:30;6.40;;;6.10;;
17449;SDS011;8842;51.244;7.102;2024-02-23T03:47:50;6.40;;;6.10;;
17449;SDS011;8842;51.244;7.102;2024-02-23T03:53:02;6.10;;;5.80;;
17449;SDS011;8842;51.244;7.102;2024-02-23T03:58:23;6.50;;;6.20;;
17449;SDS011;8842;51.244;7.102;2024-02-23T04:03:44;6.50;;;6.20;;
17449;SDS011;8842;51.244;7.102;2024-02-23T04:09:04;6.40;;;6.10;;
17449;SDS011;8842;51.244;7.102;2024-02-23T04:14:25;6.50;;;6.20;;
17449;SDS011;8842;51.244;7.102;2024-02-23T04:19:45;6.30;;;6.00;;
17449;SDS011;8842;51.244;7.102;2024-02-23T04:25:06;6.50;;;6.20;;
17449;SDS011;8842;51.244;7.102;2024-02-23T04:30:18;6.50;;;6.20;;
17449;SDS011;8842;51.244;7.102;2024-02-23T04:35:39;6.80;;;6.50;;
17449;SDS011;8842;51.244;7.102;2024-02-23T04:40:51;7.63;;;7.23;;
17449;SDS011;8842;51.244;7.102;2024-02-23T04:46:12;7.00;;;6.70;;
17449;SDS011;8842;51.244;7.102;2024-02-23T04:51:33;7.37;;;7.07;;
17449;SDS011;8842;51.244;7.102;2024-02-23T04:56:55;7.70;;;7.30;;
17449;SDS011;8842;51.244;7.102;2024-02-23T05:02:15;7.90;;;7.50;;
17449;SDS011;8842;51.244;7.102;2024-02-23T05:07:36;7.20;;;6.90;;
17449;SDS011;8842;51.244;7.102;2024-02-23T05:12:56;7.33;;;7.03;;
17449;SDS011;8842;51.244;7.102;2024-02-23T05:18:16;7.80;;;7.40;;
17449;SDS011;8842;51.244;7.102;2024-02-23T05:23:37;7.23;;;6.93;;
17449;SDS011;8842;51.244;7.102;2024-02-23T05:28:58;7.40;;;7.10;;
17449;SDS011;8842;51.244;7.102;2024-02-23T05:34:18;7.50;;;7.17;;
17449;SDS011;8842;51.244;7.102;2024-02-23T05:39:33;7.20;;;6.90;;
17449;SDS011;8842;51.244;7.102;2024-02-23T05:44:53;7.30;;;7.00;;
17449;SDS011;8842;51.244;7.102;2024-02-23T05:50:14;7.57;;;7.20;;
17449;SDS011;8842;51.244;7.102;2024-02-23T05:55:35;7.60;;;7.20;;
17449;SDS011;8842;51.244;7.102;2024-02-23T06:00:56;8.00;;;7.60;;
17449;SDS011;8842;51.244;7.102;2024-02-23T06:06:08;7.70;;;7.30;;
17449;SDS011;8842;51.244;7.102;2024-02-23T06:11:29;7.60;;;7.20;;
17449;SDS011;8842;51.244;7.102;2024-02-23T06:16:49;7.30;;;7.00;;
17449;SDS011;8842;51.244;7.102;2024-02-23T06:22:01;7.17;;;6.87;;
17449;SDS011;8842;51.244;7.102;2024-02-23T06:27:22;7.50;;;7.17;;
17449;SDS011;8842;51.244;7.102;2024-02-23T06:32:44;7.80;;;7.40;;
17449;SDS011;8842;51.244;7.102;2024-02-23T06:37:56;8.10;;;7.70;;
17449;SDS011;8842;51.244;7.102;2024-02-23T06:43:17;7.77;;;7.37;;
17449;SDS011;8842;51.244;7.102;2024-02-23T06:48:38;8.10;;;7.70;;
17449;SDS011;8842;51.244;7.102;2024-02-23T06:53:59;8.30;;;7.90;;
17449;SDS011;8842;51.244;7.102;2024-02-23T06:59:20;8.23;;;7.83;;
17449;SDS011;8842;51.244;7.102;2024-02-23T07:04:38;7.60;;;7.20;;
17449;SDS011;8842;51.244;7.102;2024-02-23T07:09:58;7.70;;;7.30;;
17449;SDS011;8842;51.244;7.102;2024-02-23T07:15:10;7.80;;;7.40;;
17449;SDS011;8842;51.244;7.102;2024-02-23T07:20:31;7.40;;;7.10;;
17449;SDS011;8842;51.244;7.102;2024-02-23T07:25:52;7.10;;;6.80;;
17449;SDS011;8842;51.244;7.102;2024-02-23T07:31:14;7.90;;;7.50;;
17449;SDS011;8842;51.244;7.102;2024-02-23T07:36:35;8.13;;;7.73;;
17449;SDS011;8842;51.244;7.102;2024-02-23T07:41:55;7.60;;;7.20;;
17449;SDS011;8842;51.244;7.102;2024-02-23T07:47:17;7.70;;;7.30;;
17449;SDS011;8842;51.244;7.102;2024-02-23T07:52:38;8.83;;;8.23;;
17449;SDS011;8842;51.244;7.102;2024-02-23T07:57:59;7.80;;;7.40;;
17449;SDS011;8842;51.244;7.102;2024-02-23T08:03:13;7.90;;;7.50;;
17449;SDS011;8842;51.244;7.102;2024-02-23T08:08:34;7.90;;;7.50;;
17449;SDS011;8842;51.244;7.102;2024-02-23T08:13:55;7.17;;;6.87;;
17449;SDS011;8842;51.244;7.102;2024-02-23T08:19:16;16.63;;;7.63;;
17449;SDS011;8842;51.244;7.102;2024-02-23T08:24:28;6.20;;;5.90;;
17449;SDS011;8842;51.244;7.102;2024-02-23T08:29:49;7.37;;;7.07;;
17449;SDS011;8842;51.244;7.102;2024-02-23T08:35:09;6.97;;;6.67;;
17449;SDS011;8842;51.244;7.102;2024-02-23T08:40:30;7.30;;;7.00;;
17449;SDS011;8842;51.244;7.102;2024-02-23T08:45:51;8.17;;;7.77;;
17449;SDS011;8842;51.244;7.102;2024-02-23T08:51:03;7.80;;;7.40;;
17449;SDS011;8842;51.244;7.102;2024-02-23T08:56:08;7.80;;;7.40;;
17449;SDS011;8842;51.244;7.102;2024-02-23T09:01:12;7.30;;;7.00;;
17449;SDS011;8842;51.244;7.102;2024-02-23T09:06:24;8.20;;;7.53;;
17449;SDS011;8842;51.244;7.102;2024-02-23T09:11:28;6.90;;;6.60;;
17449;SDS011;8842;51.244;7.102;2024-02-23T09:16:32;6.90;;;6.60;;
17449;SDS011;8842;51.244;7.102;2024-02-23T09:21:36;7.10;;;6.80;;
17449;SDS011;8842;51.244;7.102;2024-02-23T09:26:48;7.30;;;6.90;;
17449;SDS011;8842;51.244;7.102;2024-02-23T09:31:52;7.50;;;7.20;;
17449;SDS011;8842;51.244;7.102;2024-02-23T09:36:56;7.70;;;7.30;;
17449;SDS011;8842;51.244;7.102;2024-02-23T09:42:01;7.40;;;7.10;;
17449;SDS011;8842;51.244;7.102;2024-02-23T09:47:06;7.10;;;6.80;;
17449;SDS011;8842;51.244;7.102;2024-02-23T09:52:13;7.23;;;6.93;;
17449;SDS011;8842;51.244;7.102;2024-02-23T09:57:24;6.60;;;6.30;;
17449;SDS011;8842;51.244;7.102;2024-02-23T10:02:29;6.53;;;6.23;;
17449;SDS011;8842;51.244;7.102;2024-02-23T10:07:41;6.70;;;6.40;;
17449;SDS011;8842;51.244;7.102;2024-02-23T10:12:52;6.70;;;6.33;;
17449;SDS011;8842;51.244;7.102;2024-02-23T10:17:56;6.60;;;6.30;;
17449;SDS011;8842;51.244;7.102;2024-02-23T10:23:08;6.63;;;6.33;;
17449;SDS011;8842;51.244;7.102;2024-02-23T10:28:13;6.93;;;6.53;;
17449;SDS011;8842;51.244;7.102;2024-02-23T10:33:17;6.83;;;6.53;;
17449;SDS011;8842;51.244;7.102;2024-02-23T10:38:30;6.77;;;6.47;;
17449;SDS011;8842;51.244;7.102;2024-02-23T10:43:39;6.80;;;6.50;;
17449;SDS011;8842;51.244;7.102;2024-02-23T10:48:46;7.10;;;6.80;;
17449;SDS011;8842;51.244;7.102;2024-02-23T10:53:57;6.80;;;6.50;;
17449;SDS011;8842;51.244;7.102;2024-02-23T10:59:03;6.67;;;6.37;;
17449;SDS011;8842;51.244;7.102;2024-02-23T11:04:15;6.53;;;6.23;;
17449;SDS011;8842;51.244;7.102;2024-02-23T11:09:21;6.80;;;6.50;;
17449;SDS011;8842;51.244;7.102;2024-02-23T11:14:29;7.03;;;6.73;;
17449;SDS011;8842;51.244;7.102;2024-02-23T11:19:41;6.70;;;6.40;;
17449;SDS011;8842;51.244;7.102;2024-02-23T11:24:49;7.00;;;6.70;;
17449;SDS011;8842;51.244;7.102;2024-02-23T11:30:04;7.20;;;6.90;;
17449;SDS011;8842;51.244;7.102;2024-02-23T11:35:11;6.93;;;6.63;;
17449;SDS011;8842;51.244;7.102;2024-02-23T11:40:23;7.00;;;6.70;;
17449;SDS011;8842;51.244;7.102;2024-02-23T11:45:28;7.03;;;6.73;;
17449;SDS011;8842;51.244;7.102;2024-02-23T11:50:33;7.10;;;6.80;;
17449;SDS011;8842;51.244;7.102;2024-02-23T11:55:45;7.50;;;7.00;;
17449;SDS011;8842;51.244;7.102;2024-02-23T12:00:51;6.83;;;6.53;;
17449;SDS011;8842;51.244;7.102;2024-02-23T12:06:03;5.83;;;5.60;;
17449;SDS011;8842;51.244;7.102;2024-02-23T12:11:08;6.20;;;5.90;;
17449;SDS011;8842;51.244;7.102;2024-02-23T12:16:13;6.40;;;6.10;;
17449;SDS011;8842;51.244;7.102;2024-02-23T12:21:25;6.40;;;6.10;;
17449;SDS011;8842;51.244;7.102;2024-02-23T12:26:29;7.30;;;6.90;;
17449;SDS011;8842;51.244;7.102;2024-02-23T12:31:41;6.60;;;6.30;;
17449;SDS011;8842;51.244;7.102;2024-02-23T12:36:46;6.57;;;6.27;;
17449;SDS011;8842;51.244;7.102;2024-02-23T12:41:51;6.33;;;6.03;;
17449;SDS011;8842;51.244;7.102;2024-02-23T12:46:55;6.83;;;6.50;;
17449;SDS011;8842;51.244;7.102;2024-02-23T12:51:59;6.20;;;5.90;;
17449;SDS011;8842;51.244;7.102;2024-02-23T12:57:03;6.67;;;6.37;;
17449;SDS011;8842;51.244;7.102;2024-02-23T13:02:07;6.23;;;5.93;;
17449;SDS011;8842;51.244;7.102;2024-02-23T13:07:15;6.40;;;6.10;;
17449;SDS011;8842;51.244;7.102;2024-02-23T13:12:19;6.60;;;6.30;;
17449;SDS011;8842;51.244;7.102;2024-02-23T13:17:23;6.60;;;6.30;;
17449;SDS011;8842;51.244;7.102;2024-02-23T13:22:28;6.50;;;6.20;;
17449;SDS011;8842;51.244;7.102;2024-02-23T13:27:39;6.43;;;6.13;;
17449;SDS011;8842;51.244;7.102;2024-02-23T13:32:43;6.50;;;6.20;;
17449;SDS011;8842;51.244;7.102;2024-02-23T13:37:48;6.27;;;5.97;;
17449;SDS011;8842;51.244;7.102;2024-02-23T13:42:52;6.20;;;5.90;;
17449;SDS011;8842;51.244;7.102;2024-02-23T13:47:56;6.30;;;6.00;;
17449;SDS011;8842;51.244;7.102;2024-02-23T13:53:01;6.63;;;6.33;;
17449;SDS011;8842;51.244;7.102;2024-02-23T13:58:05;6.20;;;5.90;;
17449;SDS011;8842;51.244;7.102;2024-02-23T14:03:17;6.10;;;5.80;;
17449;SDS011;8842;51.244;7.102;2024-02-23T14:08:21;5.97;;;5.67;;
17449;SDS011;8842;51.244;7.102;2024-02-23T14:13:25;6.07;;;5.77;;
17449;SDS011;8842;51.244;7.102;2024-02-23T14:18:29;6.00;;;5.70;;
17449;SDS011;8842;51.244;7.102;2024-02-23T14:23:34;5.60;;;5.40;;
17449;SDS011;8842;51.244;7.102;2024-02-23T14:28:39;5.60;;;5.40;;
17449;SDS011;8842;51.244;7.102;2024-02-23T14:38:54;5.80;;;5.60;;
17449;SDS011;8842;51.244;7.102;2024-02-23T14:43:58;6.40;;;6.10;;
17449;SDS011;8842;51.244;7.102;2024-02-23T14:49:02;6.50;;;6.20;;
17449;SDS011;8842;51.244;7.102;2024-02-23T14:54:06;5.70;;;5.50;;
17449;SDS011;8842;51.244;7.102;2024-02-23T14:59:18;5.70;;;5.50;;
17449;SDS011;8842;51.244;7.102;2024-02-23T15:04:23;6.00;;;5.70;;
17449;SDS011;8842;51.244;7.102;2024-02-23T15:09:27;5.93;;;5.67;;
17449;SDS011;8842;51.244;7.102;2024-02-23T15:14:39;6.10;;;5.80;;
17449;SDS011;8842;51.244;7.102;2024-02-23T15:19:43;20.50;;;6.37;;
17449;SDS011;8842;51.244;7.102;2024-02-23T15:24:55;6.50;;;6.20;;
17449;SDS011;8842;51.244;7.102;2024-02-23T15:30:01;6.43;;;6.13;;
17449;SDS011;8842;51.244;7.102;2024-02-23T15:35:06;6.33;;;6.03;;
17449;SDS011;8842;51.244;7.102;2024-02-23T15:40:11;6.63;;;6.33;;
17449;SDS011;8842;51.244;7.102;2024-02-23T15:45:23;6.30;;;6.00;;
17449;SDS011;8842;51.244;7.102;2024-02-23T15:50:27;6.03;;;5.73;;
17449;SDS011;8842;51.244;7.102;2024-02-23T15:55:39;6.40;;;6.10;;
17449;SDS011;8842;51.244;7.102;2024-02-23T16:00:44;6.50;;;6.20;;
17449;SDS011;8842;51.244;7.102;2024-02-23T16:05:48;6.70;;;6.40;;
17449;SDS011;8842;51.244;7.102;2024-02-23T16:10:53;6.60;;;6.30;;
17449;SDS011;8842;51.244;7.102;2024-02-23T16:15:58;6.30;;;6.00;;
17449;SDS011;8842;51.244;7.102;2024-02-23T16:21:04;6.40;;;6.10;;
17449;SDS011;8842;51.244;7.102;2024-02-23T16:26:08;6.30;;;6.00;;
17449;SDS011;8842;51.244;7.102;2024-02-23T16:31:13;6.10;;;5.80;;
17449;SDS011;8842;51.244;7.102;2024-02-23T16:36:17;6.57;;;6.27;;
17449;SDS011;8842;51.244;7.102;2024-02-23T16:41:22;6.80;;;6.50;;
17449;SDS011;8842;51.244;7.102;2024-02-23T16:46:26;6.33;;;6.03;;
17449;SDS011;8842;51.244;7.102;2024-02-23T16:51:30;6.40;;;6.10;;
17449;SDS011;8842;51.244;7.102;2024-02-23T16:56:34;6.90;;;6.60;;
17449;SDS011;8842;51.244;7.102;2024-02-23T17:01:38;6.80;;;6.50;;
17449;SDS011;8842;51.244;7.102;2024-02-23T17:06:42;7.10;;;6.80;;
17449;SDS011;8842;51.244;7.102;2024-02-23T17:11:47;7.07;;;6.77;;
17449;SDS011;8842;51.244;7.102;2024-02-23T17:16:51;6.80;;;6.50;;
17449;SDS011;8842;51.244;7.102;2024-02-23T17:21:55;6.60;;;6.30;;
17449;SDS011;8842;51.244;7.102;2024-02-23T17:27:07;5.53;;;5.33;;
17449;SDS011;8842;51.244;7.102;2024-02-23T17:32:11;5.70;;;5.50;;
17449;SDS011;8842;51.244;7.102;2024-02-23T17:37:23;6.00;;;5.70;;
17449;SDS011;8842;51.244;7.102;2024-02-23T17:42:27;6.60;;;6.30;;
17449;SDS011;8842;51.244;7.102;2024-02-23T17:47:31;7.07;;;6.77;;
17449;SDS011;8842;51.244;7.102;2024-02-23T17:52:36;6.87;;;6.57;;
17449;SDS011;8842;51.244;7.102;2024-02-23T17:57:40;7.00;;;6.70;;
17449;SDS011;8842;51.244;7.102;2024-02-23T18:02:44;7.30;;;7.00;;
17449;SDS011;8842;51.244;7.102;2024-02-23T18:07:48;6.60;;;6.30;;
17449;SDS011;8842;51.244;7.102;2024-02-23T18:12:52;7.00;;;6.60;;
17449;SDS011;8842;51.244;7.102;2024-02-23T18:18:04;6.60;;;6.30;;
17449;SDS011;8842;51.244;7.102;2024-02-23T18:23:09;6.87;;;6.57;;
17449;SDS011;8842;51.244;7.102;2024-02-23T18:33:24;7.40;;;7.00;;
17449;SDS011;8842;51.244;7.102;2024-02-23T18:38:28;7.07;;;6.77;;
17449;SDS011;8842;51.244;7.102;2024-02-23T18:43:39;7.20;;;6.90;;
17449;SDS011;8842;51.244;7.102;2024-02-23T18:48:44;7.10;;;6.80;;
17449;SDS011;8842;51.244;7.102;2024-02-23T18:53:51;7.10;;;6.80;;
17449;SDS011;8842;51.244;7.102;2024-02-23T19:09:35;7.00;;;6.70;;
17449;SDS011;8842;51.244;7.102;2024-02-23T19:14:39;6.90;;;6.60;;
17449;SDS011;8842;51.244;7.102;2024-02-23T19:19:43;6.90;;;6.60;;
17449;SDS011;8842;51.244;7.102;2024-02-23T19:24:47;7.00;;;6.70;;
17449;SDS011;8842;51.244;7.102;2024-02-23T19:29:59;7.53;;;7.03;;
17449;SDS011;8842;51.244;7.102;2024-02-23T19:35:05;7.20;;;6.90;;
17449;SDS011;8842;51.244;7.102;2024-02-23T19:40:11;7.80;;;7.30;;
17449;SDS011;8842;51.244;7.102;2024-02-23T19:45:23;6.80;;;6.50;;
17449;SDS011;8842;51.244;7.102;2024-02-23T19:50:28;6.60;;;6.30;;
17449;SDS011;8842;51.244;7.102;2024-02-23T19:55:32;7.20;;;6.90;;
17449;SDS011;8842;51.244;7.102;2024-02-23T20:00:36;10.00;;;9.50;;
17449;SDS011;8842;51.244;7.102;2024-02-23T20:05:40;10.30;;;9.80;;
17449;SDS011;8842;51.244;7.102;2024-02-23T20:10:45;11.00;;;10.40;;
17449;SDS011;8842;51.244;7.102;2024-02-23T20:15:49;10.40;;;9.90;;
17449;SDS011;8842;51.244;7.102;2024-02-23T20:20:55;10.03;;;9.53;;
17449;SDS011;8842;51.244;7.102;2024-02-23T20:26:07;9.60;;;9.10;;
17449;SDS011;8842;51.244;7.102;2024-02-23T20:31:11;9.40;;;8.90;;
17449;SDS011;8842;51.244;7.102;2024-02-23T20:36:15;8.90;;;8.50;;
17449;SDS011;8842;51.244;7.102;2024-02-23T20:41:19;8.70;;;8.30;;
17449;SDS011;8842;51.244;7.102;2024-02-23T20:46:25;8.80;;;8.40;;
17449;SDS011;8842;51.244;7.102;2024-02-23T20:51:30;9.30;;;8.50;;
17449;SDS011;8842;51.244;7.102;2024-02-23T20:56:35;8.40;;;8.00;;
17449;SDS011;8842;51.244;7.102;2024-02-23T21:06:50;8.10;;;7.70;;
17449;SDS011;8842;51.244;7.102;2024-02-23T21:11:54;7.90;;;7.50;;
17449;SDS011;8842;51.244;7.102;2024-02-23T21:16:59;7.87;;;7.47;;
17449;SDS011;8842;51.244;7.102;2024-02-23T21:22:04;7.17;;;6.87;;
17449;SDS011;8842;51.244;7.102;2024-02-23T21:27:08;6.77;;;6.47;;
17449;SDS011;8842;51.244;7.102;2024-02-23T21:32:23;6.60;;;6.30;;
17449;SDS011;8842;51.244;7.102;2024-02-23T21:37:27;7.20;;;6.60;;
17449;SDS011;8842;51.244;7.102;2024-02-23T21:42:31;6.60;;;6.30;;
17449;SDS011;8842;51.244;7.102;2024-02-23T21:47:35;6.40;;;6.10;;
17449;SDS011;8842;51.244;7.102;2024-02-23T21:52:39;6.63;;;6.33;;
17449;SDS011;8842;51.244;7.102;2024-02-23T21:57:43;6.47;;;6.17;;
17449;SDS011;8842;51.244;7.102;2024-02-23T22:02:47;6.60;;;6.30;;
17449;SDS011;8842;51.244;7.102;2024-02-23T22:07:51;6.70;;;6.40;;
17449;SDS011;8842;51.244;7.102;2024-02-23T22:13:03;6.50;;;6.20;;
17449;SDS011;8842;51.244;7.102;2024-02-23T22:18:07;6.30;;;6.00;;
17449;SDS011;8842;51.244;7.102;2024-02-23T22:23:11;6.73;;;6.43;;
17449;SDS011;8842;51.244;7.102;2024-02-23T22:28:15;6.50;;;6.20;;
17449;SDS011;8842;51.244;7.102;2024-02-23T22:33:19;6.40;;;6.10;;
17449;SDS011;8842;51.244;7.102;2024-02-23T22:38:31;6.30;;;6.00;;
17449;SDS011;8842;51.244;7.102;2024-02-23T22:43:35;6.40;;;6.10;;
17449;SDS011;8842;51.244;7.102;2024-02-23T22:48:39;6.77;;;6.47;;
17449;SDS011;8842;51.244;7.102;2024-02-23T22:53:44;6.47;;;6.17;;
17449;SDS011;8842;51.244;7.102;2024-02-23T22:58:55;6.70;;;6.40;;
17449;SDS011;8842;51.244;7.102;2024-02-23T23:09:10;6.90;;;6.60;;
17449;SDS011;8842;51.244;7.102;2024-02-23T23:14:15;6.50;;;6.20;;
17449;SDS011;8842;51.244;7.102;2024-02-23T23:19:19;6.30;;;6.00;;
17449;SDS011;8842;51.244;7.102;2024-02-23T23:24:30;6.50;;;6.20;;
17449;SDS011;8842;51.244;7.102;2024-02-23T23:29:35;6.40;;;6.10;;
17449;SDS011;8842;51.244;7.102;2024-02-23T23:34:40;6.50;;;6.20;;
17449;SDS011;8842;51.244;7.102;2024-02-23T23:39:45;6.40;;;6.10;;
17449;SDS011;8842;51.244;7.102;2024-02-23T23:44:48;6.50;;;6.20;;
17449;SDS011;8842;51.244;7.102;2024-02-23T23:49:53;7.07;;;6.70;;
17449;SDS011;8842;51.244;7.102;2024-02-23T23:54:57;6.40;;;6.10;;
